Time;durP1;ratioP1;P1;durP2;ratioP2;P2;SDS_P1;SDS_P2;PMS_P1;PMS_P2;Temp;Humidity;BMP_temperature;BMP_pressure;BME280_temperature;BME280_humidity;BME280_pressure;Samples;Min_cycle;Max_cycle;Signal;HPM_P1;HPM_P2
2023/10/01 00:02:20;;;;;;;10.48;4.57;;;18.30;99.50;;;;;;5015397;28;20052;-66
2023/10/01 00:04:46;;;;;;;8.10;4.32;;;18.20;99.40;;;;;;5015092;28;20104;-66
2023/10/01 00:07:12;;;;;;;9.15;5.20;;;18.20;99.40;;;;;;5015073;28;20033;-67
2023/10/01 00:09:37;;;;;;;10.52;4.65;;;18.20;99.50;;;;;;5015437;28;20141;-65
2023/10/01 00:12:04;;;;;;;10.02;5.00;;;18.30;99.40;;;;;;5015243;28;20026;-67
2023/10/01 00:14:30;;;;;;;9.18;4.53;;;18.20;99.40;;;;;;5015483;28;20053;-66
2023/10/01 00:16:55;;;;;;;12.02;5.63;;;18.10;99.40;;;;;;5014748;28;20494;-66
2023/10/01 00:19:21;;;;;;;12.45;4.95;;;18.20;99.40;;;;;;5015084;28;20426;-66
2023/10/01 00:21:47;;;;;;;9.20;4.85;;;18.10;99.40;;;;;;5014665;28;20029;-66
2023/10/01 00:24:12;;;;;;;9.00;4.60;;;18.10;99.50;;;;;;5015262;28;20018;-67
2023/10/01 00:26:38;;;;;;;10.15;4.97;;;18.00;99.60;;;;;;5014824;28;20112;-66
2023/10/01 00:29:03;;;;;;;10.68;5.28;;;18.00;99.60;;;;;;5015045;28;20030;-66
2023/10/01 00:31:29;;;;;;;6.90;4.28;;;18.00;99.60;;;;;;5014847;28;20521;-67
2023/10/01 00:33:55;;;;;;;10.20;5.07;;;18.00;99.60;;;;;;5014305;28;20077;-66
2023/10/01 00:36:20;;;;;;;9.18;4.72;;;18.00;99.60;;;;;;5014798;28;20038;-66
2023/10/01 00:38:48;;;;;;;9.10;5.28;;;18.10;99.80;;;;;;5015082;28;20518;-72
2023/10/01 00:41:15;;;;;;;7.93;4.72;;;18.00;99.50;;;;;;5014822;28;20042;-66
2023/10/01 00:43:41;;;;;;;10.27;4.97;;;18.00;99.60;;;;;;5014813;28;20030;-66
2023/10/01 00:46:07;;;;;;;8.50;4.90;;;18.00;99.70;;;;;;5014703;28;20471;-65
2023/10/01 00:48:33;;;;;;;9.98;5.10;;;18.00;99.60;;;;;;5014595;28;20018;-66
2023/10/01 00:51:01;;;;;;;10.23;4.72;;;18.00;99.70;;;;;;5014665;28;20063;-65
2023/10/01 00:53:27;;;;;;;9.95;4.85;;;18.00;99.80;;;;;;5014905;28;20037;-65
2023/10/01 00:55:53;;;;;;;8.43;4.80;;;18.00;99.80;;;;;;5014712;28;20033;-66
2023/10/01 00:58:19;;;;;;;9.23;5.00;;;18.00;99.70;;;;;;5014380;28;20493;-68
2023/10/01 01:00:49;;;;;;;10.45;4.53;;;18.00;99.70;;;;;;5014467;28;20049;-65
2023/10/01 01:03:19;;;;;;;11.95;4.97;;;17.90;99.80;;;;;;5013987;28;20096;-69
2023/10/01 01:06:12;;;;;;;8.20;4.97;;;17.90;99.80;;;;;;5014617;28;20026;-66
2023/10/01 01:08:46;;;;;;;10.25;5.10;;;17.90;99.80;;;;;;5014320;28;20471;-66
2023/10/01 01:11:16;;;;;;;10.88;4.78;;;17.90;99.70;;;;;;5014226;28;20021;-67
2023/10/01 01:13:45;;;;;;;8.63;4.82;;;17.90;99.70;;;;;;5014281;28;20061;-65
2023/10/01 01:16:19;;;;;;;8.93;4.97;;;17.90;99.80;;;;;;5014061;28;20484;-66
2023/10/01 01:18:51;;;;;;;7.65;4.72;;;17.90;99.70;;;;;;5014337;28;20059;-66
2023/10/01 01:21:17;;;;;;;;;;;17.90;99.70;;;;;;5014591;28;20155;-66
2023/10/01 01:23:45;;;;;;;8.70;4.38;;;17.90;99.70;;;;;;5014021;28;19906;-65
2023/10/01 01:26:20;;;;;;;9.88;4.70;;;17.80;99.90;;;;;;5014200;28;20101;-66
2023/10/01 01:28:49;;;;;;;8.10;4.45;;;17.80;99.80;;;;;;5014005;28;20053;-66
2023/10/01 01:31:16;;;;;;;8.50;4.63;;;17.90;99.80;;;;;;5013856;28;20467;-66
2023/10/01 01:33:44;;;;;;;10.07;4.68;;;17.80;99.80;;;;;;5013984;28;20041;-66
2023/10/01 01:36:12;;;;;;;9.57;4.80;;;17.80;99.90;;;;;;5014279;28;20033;-65
2023/10/01 01:39:26;;;;;;;11.50;4.80;;;17.80;99.80;;;;;;5013979;28;20038;-65
2023/10/01 01:41:52;;;;;;;9.32;4.30;;;17.80;99.70;;;;;;5013899;28;20034;-65
2023/10/01 01:44:19;;;;;;;9.45;4.65;;;17.80;99.90;;;;;;5013624;28;20152;-66
2023/10/01 01:46:48;;;;;;;9.27;4.53;;;17.80;99.90;;;;;;5013610;28;20026;-66
2023/10/01 01:49:19;;;;;;;8.45;4.55;;;17.80;99.90;;;;;;5013545;28;20026;-66
2023/10/01 01:51:57;;;;;;;8.90;4.78;;;17.80;99.90;;;;;;5013788;28;20028;-66
2023/10/01 01:54:27;;;;;;;10.43;5.05;;;17.80;99.80;;;;;;5013510;28;20065;-66
2023/10/01 01:56:55;;;;;;;7.90;4.45;;;17.70;99.90;;;;;;5013326;28;20038;-66
2023/10/01 01:59:27;;;;;;;9.88;4.47;;;17.70;99.90;;;;;;5013096;28;20022;-65
2023/10/01 02:01:55;;;;;;;7.97;4.30;;;17.70;99.90;;;;;;5013715;28;20037;-65
2023/10/01 02:04:24;;;;;;;8.00;4.78;;;17.70;99.90;;;;;;5013293;28;20022;-66
2023/10/01 02:06:50;;;;;;;7.07;4.28;;;17.80;99.90;;;;;;5013543;28;20034;-67
2023/10/01 02:09:20;;;;;;;10.57;4.90;;;17.70;99.90;;;;;;5013425;28;20026;-66
2023/10/01 02:11:50;;;;;;;8.75;4.90;;;17.80;99.90;;;;;;5013744;28;20053;-66
2023/10/01 02:14:31;;;;;;;8.73;4.75;;;17.80;99.90;;;;;;5013181;28;20022;-66
2023/10/01 02:17:15;;;;;;;8.55;4.82;;;17.70;99.90;;;;;;5013375;28;20041;-65
2023/10/01 02:19:47;;;;;;;8.18;4.18;;;17.70;99.90;;;;;;5013211;28;20030;-66
2023/10/01 02:22:13;;;;;;;10.63;5.05;;;17.70;99.90;;;;;;5013629;28;20057;-65
2023/10/01 02:24:45;;;;;;;8.45;5.05;;;17.70;99.90;;;;;;5013209;28;20050;-71
2023/10/01 02:27:13;;;;;;;8.75;4.35;;;17.70;99.90;;;;;;5013511;28;20029;-68
2023/10/01 02:29:46;;;;;;;10.30;5.65;;;17.70;99.90;;;;;;5012999;28;20467;-65
2023/10/01 02:32:15;;;;;;;9.95;5.10;;;17.70;99.90;;;;;;5013464;28;20109;-66
2023/10/01 02:34:42;;;;;;;9.82;4.78;;;17.70;99.90;;;;;;5013046;28;20022;-65
2023/10/01 02:37:09;;;;;;;8.75;4.93;;;17.70;99.90;;;;;;5013185;28;20042;-66
2023/10/01 02:39:37;;;;;;;8.77;4.82;;;17.70;99.90;;;;;;5013078;28;20022;-66
2023/10/01 02:44:39;;;;;;;9.68;5.13;;;17.60;99.90;;;;;;5012908;28;20065;-68
2023/10/01 02:47:20;;;;;;;8.70;4.78;;;17.60;99.90;;;;;;5013110;28;20372;-67
2023/10/01 02:49:52;;;;;;;8.40;4.70;;;17.60;99.90;;;;;;5013161;28;20101;-67
2023/10/01 02:52:36;;;;;;;7.60;4.93;;;17.60;99.90;;;;;;5013348;28;20030;-67
2023/10/01 02:55:06;;;;;;;9.07;5.38;;;17.60;99.90;;;;;;5013085;28;20361;-67
2023/10/01 02:57:33;;;;;;;12.35;5.70;;;17.60;99.90;;;;;;5012736;28;20049;-67
2023/10/01 03:02:51;;;;;;;9.93;5.18;;;17.60;99.90;;;;;;5013148;28;20407;-66
2023/10/01 03:05:53;;;;;;;9.50;5.45;;;17.50;99.90;;;;;;5012834;28;20034;-67
2023/10/01 03:08:40;;;;;;;;;;;17.60;99.90;;;;;;5014219;28;20033;-67
2023/10/01 03:11:02;;;;;;;9.38;5.20;;;17.60;99.90;;;;;;5016426;28;20000;-67
2023/10/01 03:13:30;;;;;;;9.60;4.93;;;17.60;99.90;;;;;;5016642;28;20021;-66
2023/10/01 03:18:45;;;;;;;9.90;5.65;;;17.50;99.90;;;;;;5016666;28;20104;-67
2023/10/01 03:21:33;;;;;;;9.60;5.30;;;17.50;99.90;;;;;;5016579;28;20037;-67
2023/10/01 03:23:59;;;;;;;8.07;5.15;;;17.50;99.90;;;;;;5016489;28;20025;-67
2023/10/01 03:26:26;;;;;;;9.27;5.68;;;17.50;99.90;;;;;;5015999;28;20079;-67
2023/10/01 03:31:37;;;;;;;12.10;6.22;;;17.50;99.90;;;;;;5016202;28;20029;-67
2023/10/01 03:34:04;;;;;;;9.63;5.55;;;17.50;99.90;;;;;;5016353;28;20022;-67
2023/10/01 03:36:32;;;;;;;9.38;5.10;;;17.50;99.90;;;;;;5016060;28;20049;-67
2023/10/01 03:42:10;;;;;;;11.55;5.57;;;17.50;99.90;;;;;;5010795;28;20487;-67
2023/10/01 03:47:24;;;;;;;10.40;6.00;;;17.50;99.90;;;;;;5015944;28;20049;-67
2023/10/01 03:49:54;;;;;;;9.68;6.15;;;17.40;99.90;;;;;;5015946;28;20463;-67
2023/10/01 03:52:21;;;;;;;11.27;5.88;;;17.40;99.90;;;;;;5016247;28;20025;-67
2023/10/01 03:54:54;;;;;;;11.25;6.57;;;17.40;99.90;;;;;;5015778;28;20067;-67
2023/10/01 03:57:20;;;;;;;9.60;5.70;;;17.40;99.90;;;;;;5015616;28;20037;-67
2023/10/01 03:59:53;;;;;;;9.73;5.75;;;17.50;99.90;;;;;;5015755;28;20022;-67
2023/10/01 04:02:28;;;;;;;9.88;6.13;;;17.40;99.90;;;;;;5015738;28;20034;-67
2023/10/01 04:05:04;;;;;;;12.43;6.05;;;17.40;99.90;;;;;;5015412;28;20590;-73
2023/10/01 04:07:40;;;;;;;13.60;5.95;;;17.50;99.90;;;;;;5015468;28;20049;-67
2023/10/01 04:13:00;;;;;;;11.85;6.07;;;17.40;99.90;;;;;;5015862;28;20037;-67
2023/10/01 04:15:29;;;;;;;10.25;5.68;;;17.40;99.90;;;;;;5015280;28;20018;-67
2023/10/01 04:20:36;;;;;;;10.38;5.43;;;17.40;99.90;;;;;;5015358;28;20049;-67
2023/10/01 04:23:04;;;;;;;14.68;6.50;;;17.40;99.90;;;;;;5015323;28;20057;-69
2023/10/01 04:25:38;;;;;;;11.05;5.95;;;17.40;99.90;;;;;;5014939;28;20464;-68
2023/10/01 04:28:05;;;;;;;9.57;5.45;;;17.40;99.90;;;;;;5015315;28;20426;-67
2023/10/01 04:30:34;;;;;;;12.13;5.88;;;17.40;99.90;;;;;;5015491;28;20026;-67
2023/10/01 04:33:18;;;;;;;8.77;6.10;;;17.40;99.90;;;;;;5015182;28;20047;-68
2023/10/01 04:35:51;;;;;;;8.02;5.20;;;17.30;99.90;;;;;;5015020;28;20058;-68
2023/10/01 04:38:22;;;;;;;13.10;5.75;;;17.30;99.90;;;;;;5015079;28;20037;-67
2023/10/01 04:40:49;;;;;;;10.85;6.22;;;17.30;99.90;;;;;;5014673;28;20531;-67
2023/10/01 04:43:16;;;;;;;10.13;6.35;;;17.30;99.90;;;;;;5014988;28;20109;-68
2023/10/01 04:45:44;;;;;;;9.93;5.72;;;17.30;99.90;;;;;;5014953;28;20026;-67
2023/10/01 04:48:22;;;;;;;13.15;6.25;;;17.30;99.90;;;;;;5013470;28;20018;-67
2023/10/01 04:50:53;;;;;;;11.05;6.38;;;17.30;99.90;;;;;;5014909;28;20026;-67
2023/10/01 04:53:22;;;;;;;12.40;6.68;;;17.30;99.90;;;;;;5014480;28;20025;-67
2023/10/01 04:56:05;;;;;;;11.68;6.70;;;17.30;99.90;;;;;;5014848;28;20097;-67
2023/10/01 04:58:32;;;;;;;11.15;7.30;;;17.30;99.90;;;;;;5014585;28;20038;-67
2023/10/01 05:00:58;;;;;;;10.43;6.50;;;17.30;99.90;;;;;;5014306;28;20014;-67
2023/10/01 05:03:40;;;;;;;10.77;6.57;;;17.30;99.90;;;;;;5014549;28;20026;-67
2023/10/01 05:06:14;;;;;;;11.60;6.15;;;17.20;99.90;;;;;;5012750;28;20076;-67
2023/10/01 05:08:42;;;;;;;11.65;6.43;;;17.30;99.90;;;;;;5013893;28;20490;-67
2023/10/01 05:11:11;;;;;;;11.70;6.43;;;17.30;99.90;;;;;;5014412;28;20029;-67
2023/10/01 05:13:41;;;;;;;12.50;7.10;;;17.30;99.90;;;;;;5014322;28;20109;-67
2023/10/01 05:16:12;;;;;;;9.07;6.32;;;17.30;99.90;;;;;;5014351;28;20084;-67
2023/10/01 05:18:46;;;;;;;13.88;6.88;;;17.30;99.90;;;;;;5014265;28;20550;-67
2023/10/01 05:21:13;;;;;;;9.95;5.88;;;17.30;99.90;;;;;;5014208;28;20037;-67
2023/10/01 05:23:42;;;;;;;12.55;6.40;;;17.30;99.90;;;;;;5013933;28;20026;-67
2023/10/01 05:26:10;;;;;;;14.43;7.82;;;17.30;99.90;;;;;;5014142;28;20100;-67
2023/10/01 05:28:40;;;;;;;11.70;6.72;;;17.30;99.90;;;;;;5014081;28;20022;-67
2023/10/01 05:31:15;;;;;;;12.45;7.22;;;17.30;99.90;;;;;;5013372;28;20021;-67
2023/10/01 05:33:52;;;;;;;14.85;6.93;;;17.30;99.90;;;;;;5013883;28;20576;-67
2023/10/01 05:36:19;;;;;;;11.35;6.45;;;17.20;99.90;;;;;;5014029;28;20049;-69
2023/10/01 05:38:45;;;;;;;10.60;6.53;;;17.30;99.90;;;;;;5013675;28;20041;-67
2023/10/01 05:41:16;;;;;;;13.75;6.93;;;17.20;99.90;;;;;;5013863;28;20133;-67
2023/10/01 05:43:50;;;;;;;11.65;6.70;;;17.20;99.90;;;;;;5013907;28;20405;-67
2023/10/01 05:46:22;;;;;;;13.95;7.53;;;17.30;99.90;;;;;;5013865;28;20034;-68
2023/10/01 05:48:50;;;;;;;12.93;7.43;;;17.20;99.90;;;;;;5013954;28;20029;-68
2023/10/01 05:51:18;;;;;;;10.07;6.50;;;17.20;99.90;;;;;;5013555;28;20544;-73
2023/10/01 05:53:45;;;;;;;12.77;7.57;;;17.20;99.90;;;;;;5013732;28;20080;-71
2023/10/01 05:56:12;;;;;;;11.88;7.07;;;17.20;99.90;;;;;;5013584;28;20026;-67
2023/10/01 05:58:42;;;;;;;13.10;8.13;;;17.20;99.90;;;;;;5013592;28;20029;-67
2023/10/01 06:01:16;;;;;;;12.20;7.10;;;17.20;99.90;;;;;;5013869;28;20364;-67
2023/10/01 06:03:44;;;;;;;12.60;7.07;;;17.20;99.90;;;;;;5013708;28;20017;-66
2023/10/01 06:06:25;;;;;;;12.52;7.43;;;17.20;99.90;;;;;;5013094;28;20053;-68
2023/10/01 06:09:00;;;;;;;12.65;7.72;;;17.20;99.90;;;;;;5013539;28;20037;-67
2023/10/01 06:11:41;;;;;;;14.27;7.60;;;17.20;99.90;;;;;;5013502;28;20029;-67
2023/10/01 06:14:36;;;;;;;13.05;7.25;;;17.20;99.90;;;;;;5013553;28;20112;-72
2023/10/01 06:17:00;;;;;;;14.25;8.07;;;17.20;99.90;;;;;;5013289;28;20045;-67
2023/10/01 06:19:33;;;;;;;14.63;8.20;;;17.20;99.90;;;;;;5013226;28;20022;-68
2023/10/01 06:22:12;;;;;;;13.02;6.88;;;17.20;99.90;;;;;;5013070;28;20032;-67
2023/10/01 06:24:46;;;;;;;11.68;7.22;;;17.20;99.90;;;;;;5011903;28;20025;-67
2023/10/01 06:27:17;;;;;;;11.02;7.10;;;17.20;99.90;;;;;;5013348;28;20029;-67
2023/10/01 06:29:56;;;;;;;11.20;7.10;;;17.20;99.90;;;;;;5013116;28;20498;-67
2023/10/01 06:32:23;;;;;;;14.88;7.45;;;17.20;99.90;;;;;;5013198;28;20510;-67
2023/10/01 06:34:51;;;;;;;13.55;7.70;;;17.20;99.90;;;;;;5012816;28;20029;-67
2023/10/01 06:37:19;;;;;;;11.35;7.50;;;17.30;99.90;;;;;;5011633;28;20376;-68
2023/10/01 06:39:46;;;;;;;11.98;8.10;;;17.20;99.90;;;;;;5013173;28;20493;-67
2023/10/01 06:42:23;;;;;;;15.23;8.63;;;17.30;99.90;;;;;;5015330;28;20030;-66
2023/10/01 06:44:58;;;;;;;15.02;7.38;;;17.20;99.90;;;;;;5017361;28;20464;-67
2023/10/01 06:47:25;;;;;;;11.93;7.22;;;17.20;99.90;;;;;;5017027;28;20026;-67
2023/10/01 06:52:34;;;;;;;12.18;7.53;;;17.30;99.90;;;;;;4996142;28;20030;-67
2023/10/01 06:55:01;;;;;;;13.80;8.70;;;17.30;99.90;;;;;;4995290;28;20026;-67
2023/10/01 06:57:28;;;;;;;11.30;6.63;;;17.30;99.90;;;;;;4997352;28;20026;-67
2023/10/01 06:59:57;;;;;;;9.60;6.10;;;17.40;99.90;;;;;;4997281;28;20026;-68
2023/10/01 07:02:28;;;;;;;16.23;7.63;;;17.50;99.90;;;;;;5002674;28;20031;-67
2023/10/01 07:04:58;;;;;;;10.40;6.18;;;17.50;99.90;;;;;;5013078;28;20022;-70
2023/10/01 07:07:31;;;;;;;14.05;7.78;;;17.50;99.90;;;;;;5025852;28;20025;-66
2023/10/01 07:09:57;;;;;;;12.45;7.55;;;17.50;99.90;;;;;;5035513;28;20356;-66
2023/10/01 07:12:24;;;;;;;12.80;7.07;;;17.60;99.90;;;;;;4999640;28;20022;-67
2023/10/01 07:14:53;;;;;;;10.15;6.25;;;17.60;99.90;;;;;;4999107;28;20082;-67
2023/10/01 07:17:23;;;;;;;14.88;7.90;;;17.60;99.90;;;;;;5011419;28;20038;-68
2023/10/01 07:19:59;;;;;;;11.30;6.75;;;17.60;99.90;;;;;;5015225;28;20109;-67
2023/10/01 07:22:32;;;;;;;8.15;5.43;;;17.70;99.90;;;;;;5015061;28;20064;-67
2023/10/01 07:25:03;;;;;;;11.57;6.68;;;17.70;99.90;;;;;;5015583;28;20022;-67
2023/10/01 07:27:29;;;;;;;9.77;5.50;;;17.80;99.90;;;;;;5012887;28;20026;-67
2023/10/01 07:29:56;;;;;;;10.80;6.43;;;17.80;99.90;;;;;;5005064;28;20349;-67
2023/10/01 07:32:24;;;;;;;11.48;6.50;;;17.80;99.90;;;;;;5010911;28;20546;-67
2023/10/01 07:34:59;;;;;;;10.25;6.32;;;17.90;99.90;;;;;;5011594;28;20018;-67
2023/10/01 07:37:31;;;;;;;11.35;6.28;;;17.90;99.90;;;;;;5015476;28;20038;-67
2023/10/01 07:40:09;;;;;;;;;;;18.00;99.90;;;;;;5004891;28;20026;-67
2023/10/01 07:42:46;;;;;;;15.15;6.47;;;18.00;99.90;;;;;;5009531;28;19941;-67
2023/10/01 07:45:16;;;;;;;11.95;6.95;;;18.00;99.90;;;;;;5010267;28;20070;-68
2023/10/01 07:47:42;;;;;;;13.23;6.70;;;18.00;99.90;;;;;;5002308;28;20089;-67
2023/10/01 07:50:12;;;;;;;11.63;6.55;;;18.00;99.90;;;;;;4995100;28;20026;-68
2023/10/01 07:52:40;;;;;;;13.30;6.53;;;18.10;99.90;;;;;;4999826;28;20395;-69
2023/10/01 07:57:51;;;;;;;13.02;7.55;;;18.10;99.90;;;;;;5018453;28;20087;-68
2023/10/01 08:00:26;;;;;;;10.65;5.75;;;18.20;99.90;;;;;;5034364;28;20018;-68
2023/10/01 08:05:38;;;;;;;11.90;6.93;;;18.20;99.90;;;;;;5011256;28;20089;-68
2023/10/01 08:08:07;;;;;;;12.85;6.80;;;18.20;99.90;;;;;;5005591;28;20030;-70
2023/10/01 08:10:37;;;;;;;11.65;6.18;;;18.30;99.90;;;;;;4999652;28;20402;-68
2023/10/01 08:13:07;;;;;;;15.35;6.57;;;18.30;99.90;;;;;;4995207;28;20019;-68
2023/10/01 08:15:42;;;;;;;14.38;6.43;;;18.30;99.90;;;;;;5004438;28;20030;-67
2023/10/01 08:18:34;;;;;;;10.35;6.13;;;18.30;99.90;;;;;;5009952;28;20063;-68
2023/10/01 08:21:15;;;;;;;11.30;6.35;;;18.40;99.90;;;;;;4994652;28;20030;-67
2023/10/01 08:23:54;;;;;;;17.65;7.75;;;18.40;99.90;;;;;;4993225;28;20126;-68
2023/10/01 08:29:06;;;;;;;15.63;8.40;;;18.40;99.90;;;;;;5005406;28;20558;-69
2023/10/01 08:34:24;;;;;;;16.48;8.30;;;18.50;99.90;;;;;;5014058;28;20402;-65
2023/10/01 08:36:54;;;;;;;18.30;9.50;;;18.50;99.90;;;;;;5012890;28;20445;-64
2023/10/01 08:39:20;;;;;;;21.70;10.25;;;18.50;99.90;;;;;;5007670;28;20026;-66
2023/10/01 08:41:52;;;;;;;19.15;10.05;;;18.60;99.90;;;;;;4994738;28;20550;-67
2023/10/01 08:44:30;;;;;;;21.02;10.57;;;18.60;99.90;;;;;;5005218;28;20038;-66
2023/10/01 08:47:21;;;;;;;25.73;11.40;;;18.60;99.90;;;;;;5001850;28;20387;-67
2023/10/01 08:49:50;;;;;;;30.10;11.77;;;18.60;99.90;;;;;;5006963;28;20029;-66
2023/10/01 08:52:19;;;;;;;37.00;14.68;;;18.60;99.90;;;;;;4995509;28;20057;-67
2023/10/01 08:54:48;;;;;;;38.03;16.00;;;18.70;99.90;;;;;;5011866;28;20018;-67
2023/10/01 08:57:36;;;;;;;57.85;21.70;;;18.70;99.90;;;;;;5013390;28;20498;-70
2023/10/01 09:00:14;;;;;;;54.85;20.60;;;18.70;99.90;;;;;;5009997;28;20018;-67
2023/10/01 09:02:40;;;;;;;44.90;17.50;;;18.70;99.90;;;;;;5001574;28;20023;-67
2023/10/01 09:05:08;;;;;;;31.58;14.70;;;18.80;99.90;;;;;;5011356;28;20026;-67
2023/10/01 09:07:41;;;;;;;53.97;21.38;;;18.80;99.90;;;;;;5006970;28;20102;-67
2023/10/01 09:10:09;;;;;;;33.55;15.63;;;18.80;99.90;;;;;;5004370;28;20026;-67
2023/10/01 09:12:35;;;;;;;49.83;18.08;;;18.80;99.90;;;;;;5004065;28;20032;-69
2023/10/01 09:15:02;;;;;;;39.63;16.52;;;18.80;99.90;;;;;;4994652;28;20014;-68
2023/10/01 09:17:40;;;;;;;32.15;15.35;;;18.80;99.90;;;;;;5000260;28;20038;-68
2023/10/01 09:20:07;;;;;;;49.47;19.98;;;18.70;99.90;;;;;;5013094;28;20668;-68
2023/10/01 09:25:25;;;;;;;37.90;16.65;;;18.80;99.90;;;;;;5007129;28;20539;-68
2023/10/01 09:27:59;;;;;;;32.00;14.80;;;18.80;99.90;;;;;;5006990;28;20021;-68
2023/10/01 09:30:31;;;;;;;26.42;11.48;;;18.80;99.90;;;;;;5011400;28;20426;-68
2023/10/01 09:33:04;;;;;;;31.30;13.25;;;18.80;99.90;;;;;;5013456;28;20550;-68
2023/10/01 09:35:56;;;;;;;30.90;13.45;;;18.80;99.90;;;;;;4993892;28;20092;-68
2023/10/01 09:38:27;;;;;;;33.30;14.10;;;18.80;99.90;;;;;;4993548;28;20470;-68
2023/10/01 09:40:54;;;;;;;27.05;13.02;;;18.80;99.90;;;;;;4998911;28;20029;-68
2023/10/01 09:43:29;;;;;;;28.85;12.82;;;18.90;99.90;;;;;;5002678;28;20144;-68
2023/10/01 09:46:00;;;;;;;36.05;13.15;;;18.80;99.90;;;;;;4999299;28;20074;-68
2023/10/01 09:48:29;;;;;;;22.35;10.40;;;18.90;99.90;;;;;;5016609;28;20017;-68
2023/10/01 09:51:18;;;;;;;25.80;9.82;;;18.90;99.90;;;;;;5022604;28;20107;-67
2023/10/01 09:53:53;;;;;;;23.73;10.55;;;18.90;99.90;;;;;;5011958;28;20022;-67
2023/10/01 09:56:26;;;;;;;21.63;10.55;;;19.00;99.90;;;;;;5008109;28;20491;-67
2023/10/01 09:59:03;;;;;;;17.67;9.25;;;18.90;99.90;;;;;;5002567;28;20457;-67
2023/10/01 10:01:31;;;;;;;19.08;9.35;;;19.00;99.90;;;;;;4994295;28;20026;-70
2023/10/01 10:04:04;;;;;;;25.15;10.35;;;19.00;99.90;;;;;;5007210;28;20483;-68
2023/10/01 10:06:31;;;;;;;18.20;9.48;;;19.00;99.90;;;;;;5004300;28;20037;-68
2023/10/01 10:09:05;;;;;;;20.98;10.00;;;19.10;99.90;;;;;;5001048;28;20075;-72
2023/10/01 10:11:39;;;;;;;23.30;9.75;;;19.00;99.90;;;;;;4994504;28;20061;-68
2023/10/01 10:14:26;;;;;;;18.48;9.90;;;19.10;99.90;;;;;;5002566;28;20022;-67
2023/10/01 10:16:59;;;;;;;18.17;9.15;;;19.10;99.90;;;;;;5005132;28;20129;-68
2023/10/01 10:19:26;;;;;;;15.15;8.82;;;19.20;99.90;;;;;;4993455;28;20030;-68
2023/10/01 10:24:36;;;;;;;15.95;8.75;;;19.20;99.90;;;;;;4999966;28;20056;-68
2023/10/01 10:27:15;;;;;;;18.10;9.25;;;19.20;99.90;;;;;;5007925;28;20124;-68
2023/10/01 10:29:46;;;;;;;17.40;8.65;;;19.20;99.90;;;;;;5010344;28;20463;-68
2023/10/01 10:32:16;;;;;;;15.57;8.60;;;19.20;99.90;;;;;;5019711;28;20041;-68
2023/10/01 10:35:03;;;;;;;16.42;8.88;;;19.20;99.90;;;;;;5010100;28;20053;-68
2023/10/01 10:37:35;;;;;;;15.98;8.38;;;19.20;99.90;;;;;;5006287;28;20038;-68
2023/10/01 10:42:58;;;;;;;16.20;8.13;;;19.30;99.90;;;;;;4992251;28;20038;-68
2023/10/01 10:45:43;;;;;;;15.32;8.20;;;19.30;99.90;;;;;;4992876;28;20439;-68
2023/10/01 10:48:10;;;;;;;15.75;9.27;;;19.30;99.90;;;;;;4992719;28;20022;-68
2023/10/01 10:50:58;;;;;;;15.07;8.57;;;19.30;99.90;;;;;;5012072;28;20491;-68
2023/10/01 10:53:38;;;;;;;13.85;8.13;;;19.40;99.90;;;;;;5012308;28;20113;-68
2023/10/01 10:56:09;;;;;;;15.25;8.48;;;19.40;99.90;;;;;;5012124;28;20025;-69
2023/10/01 10:58:41;;;;;;;13.65;8.05;;;19.40;99.90;;;;;;5012958;28;20521;-69
2023/10/01 11:01:20;;;;;;;15.15;8.75;;;19.40;99.90;;;;;;5011751;28;20022;-68
2023/10/01 11:03:49;;;;;;;15.27;8.07;;;19.40;99.90;;;;;;5012105;28;20026;-68
2023/10/01 11:06:22;;;;;;;15.70;8.93;;;19.50;99.90;;;;;;5012135;28;20483;-68
2023/10/01 11:08:52;;;;;;;16.05;8.23;;;19.50;99.90;;;;;;5012198;28;20071;-68
2023/10/01 11:11:28;;;;;;;15.50;8.32;;;19.60;99.90;;;;;;5011255;28;20501;-68
2023/10/01 11:14:00;;;;;;;13.10;7.53;;;19.60;99.90;;;;;;5012498;28;20095;-69
2023/10/01 11:16:34;;;;;;;11.98;7.97;;;19.60;99.90;;;;;;5012159;28;20029;-70
2023/10/01 11:19:13;;;;;;;16.73;8.45;;;19.60;99.90;;;;;;5012443;28;20029;-68
2023/10/01 11:21:57;;;;;;;13.60;7.97;;;19.60;99.90;;;;;;5011404;28;20140;-68
2023/10/01 11:24:40;;;;;;;13.88;8.00;;;19.70;99.90;;;;;;5011092;28;20034;-68
2023/10/01 11:30:13;;;;;;;12.20;7.50;;;19.70;99.90;;;;;;5015470;28;20400;-68
2023/10/01 11:32:58;;;;;;;11.38;7.72;;;19.70;99.90;;;;;;5012755;28;20033;-68
2023/10/01 11:35:31;;;;;;;12.52;8.23;;;19.80;99.90;;;;;;5014149;28;20033;-71
2023/10/01 11:38:11;;;;;;;13.00;8.48;;;19.80;99.90;;;;;;5015120;28;20069;-68
2023/10/01 11:43:27;;;;;;;16.70;8.07;;;19.80;99.90;;;;;;5015568;28;20032;-68
2023/10/01 11:46:23;;;;;;;17.05;8.55;;;19.90;99.90;;;;;;5015330;28;20033;-68
2023/10/01 11:49:02;;;;;;;12.98;7.97;;;19.90;99.90;;;;;;5009875;28;20049;-70
2023/10/01 11:52:01;;;;;;;15.52;8.27;;;19.90;99.90;;;;;;5014609;28;20167;-69
2023/10/01 11:54:44;;;;;;;16.48;8.35;;;20.00;99.90;;;;;;5016720;28;20034;-68
2023/10/01 11:57:22;;;;;;;13.93;7.93;;;20.00;99.90;;;;;;5014614;28;20057;-68
2023/10/01 11:59:54;;;;;;;15.38;8.13;;;20.10;99.90;;;;;;5015560;28;20026;-68
2023/10/01 12:02:27;;;;;;;12.95;8.25;;;20.10;99.90;;;;;;5014072;28;20036;-68
2023/10/01 12:04:56;;;;;;;12.50;8.27;;;20.10;99.90;;;;;;5015415;28;20658;-68
2023/10/01 12:07:31;;;;;;;16.42;9.15;;;20.10;99.90;;;;;;5015503;28;20030;-68
2023/10/01 12:09:58;;;;;;;14.25;7.70;;;20.10;99.90;;;;;;5018588;28;20109;-69
2023/10/01 12:12:28;;;;;;;14.65;8.23;;;20.10;99.90;;;;;;5014230;28;20474;-69
2023/10/01 12:15:33;;;;;;;12.77;7.88;;;20.10;99.90;;;;;;5014701;28;20042;-68
2023/10/01 12:17:46;;;;;;;14.98;8.45;;;20.10;99.90;;;;;;5014722;28;20438;-68
2023/10/01 12:20:28;;;;;;;12.48;7.63;;;20.20;99.90;;;;;;5015598;28;20021;-68
2023/10/01 12:23:13;;;;;;;14.32;7.72;;;20.20;99.90;;;;;;5024772;28;20041;-68
2023/10/01 12:28:29;;;;;;;13.02;7.75;;;20.30;99.90;;;;;;5014522;28;20034;-68
2023/10/01 12:30:59;;;;;;;12.50;7.78;;;20.30;99.90;;;;;;5015164;28;20475;-68
2023/10/01 12:33:42;;;;;;;13.48;8.30;;;20.40;99.90;;;;;;5019625;28;20456;-68
2023/10/01 12:39:16;;;;;;;13.32;8.23;;;20.40;99.90;;;;;;5014018;28;20108;-68
2023/10/01 12:41:56;;;;;;;13.75;8.48;;;20.40;99.90;;;;;;5014713;28;20386;-68
2023/10/01 12:44:27;;;;;;;13.18;8.35;;;20.40;99.90;;;;;;5015547;28;20075;-68
2023/10/01 12:46:54;;;;;;;16.60;8.32;;;20.50;99.90;;;;;;5015390;28;20022;-68
2023/10/01 12:49:20;;;;;;;12.25;7.97;;;20.60;99.90;;;;;;5014962;28;20025;-68
2023/10/01 12:51:53;;;;;;;15.13;8.35;;;20.60;99.90;;;;;;5015642;28;20029;-68
2023/10/01 12:54:19;;;;;;;12.65;8.23;;;20.60;99.90;;;;;;5025723;28;20390;-68
2023/10/01 12:57:01;;;;;;;12.93;7.47;;;20.60;99.90;;;;;;5012647;28;20030;-68
2023/10/01 12:59:36;;;;;;;12.18;8.13;;;20.60;99.90;;;;;;5014351;28;20037;-68
2023/10/01 13:02:02;;;;;;;12.40;7.57;;;20.70;99.90;;;;;;5014724;28;20037;-69
2023/10/01 13:04:32;;;;;;;12.88;8.25;;;20.70;99.90;;;;;;5014521;28;20052;-68
2023/10/01 13:07:04;;;;;;;15.20;8.52;;;20.70;99.90;;;;;;5013960;28;20438;-69
2023/10/01 13:12:14;;;;;;;13.00;7.75;;;20.80;99.90;;;;;;5025308;28;20030;-68
2023/10/01 13:14:43;;;;;;;14.80;8.52;;;20.80;99.90;;;;;;5015311;28;20034;-68
2023/10/01 13:17:23;;;;;;;15.68;8.90;;;20.80;99.90;;;;;;5025130;28;20117;-70
2023/10/01 13:19:49;;;;;;;11.55;7.95;;;20.80;99.90;;;;;;5028954;28;20124;-68
2023/10/01 13:22:18;;;;;;;15.40;8.32;;;20.80;99.90;;;;;;5013903;28;20088;-68
2023/10/01 13:24:53;;;;;;;13.30;8.38;;;20.80;99.90;;;;;;5014144;28;20471;-69
2023/10/01 13:27:20;;;;;;;12.18;8.05;;;20.90;99.90;;;;;;5009158;28;20073;-68
2023/10/01 13:29:49;;;;;;;16.08;9.40;;;20.90;99.90;;;;;;5013794;28;20101;-68
2023/10/01 13:32:26;;;;;;;13.43;8.50;;;20.90;99.90;;;;;;5012843;28;20037;-68
2023/10/01 13:34:58;;;;;;;11.77;8.45;;;20.90;99.90;;;;;;4999215;28;20444;-68
2023/10/01 13:37:42;;;;;;;13.25;8.77;;;21.00;99.90;;;;;;5008392;28;20116;-69
2023/10/01 13:40:29;;;;;;;12.23;8.15;;;21.00;99.90;;;;;;5013898;28;20025;-69
2023/10/01 14:10:21;;;;;;;13.85;8.13;;;21.20;99.90;;;;;;4996971;28;20041;-69
2023/10/01 14:12:56;;;;;;;12.55;8.10;;;21.30;99.90;;;;;;5003674;28;20033;-69
2023/10/01 14:15:23;;;;;;;15.57;8.40;;;21.30;99.90;;;;;;5006406;28;20152;-67
2023/10/01 14:17:53;;;;;;;13.43;8.13;;;21.30;99.90;;;;;;5009311;28;20403;-69
2023/10/01 14:20:38;;;;;;;15.70;10.10;;;21.40;99.90;;;;;;5003335;28;20054;-69
2023/10/01 14:23:07;;;;;;;15.25;8.60;;;21.40;99.90;;;;;;5000350;28;20152;-69
2023/10/01 14:25:52;;;;;;;15.00;8.95;;;21.40;99.90;;;;;;5004147;28;20026;-68
2023/10/01 14:28:22;;;;;;;14.05;8.73;;;21.40;99.90;;;;;;5003318;28;20034;-68
2023/10/01 14:30:58;;;;;;;16.52;8.60;;;21.40;99.90;;;;;;5000663;28;20025;-68